Time;durP1;ratioP1;P1;durP2;ratioP2;P2;SDS_P1;SDS_P2;PMS_P1;PMS_P2;Temp;Humidity;BMP_temperature;BMP_pressure;BME280_temperature;BME280_humidity;BME280_pressure;Samples;Min_cycle;Max_cycle;Signal;HPM_P1;HPM_P2
2022/09/16 22:32:02;;;;;;;3.37;2.37;;;7.30;99.90;;;;;;5135792;23;20541;-68
2022/09/16 22:34:03;;;;;;;3.07;2.13;;;7.20;99.90;;;;;;5057529;23;1223859;-69
2022/09/16 22:36:06;;;;;;;5.20;2.50;;;7.30;99.90;;;;;;5097854;23;20166;-69
2022/09/16 22:38:07;;;;;;;1.90;1.80;;;7.30;99.90;;;;;;5098138;23;20159;-69
2022/09/16 22:40:08;;;;;;;4.30;2.10;;;7.20;99.90;;;;;;5097943;23;20396;-69
2022/09/16 22:42:09;;;;;;;2.93;2.10;;;7.40;99.90;;;;;;5098059;23;20240;-69
2022/09/16 22:44:09;;;;;;;2.43;2.03;;;7.40;99.90;;;;;;5098126;23;20467;-68
2022/09/16 22:46:16;;;;;;;6.83;2.80;;;7.40;99.90;;;;;;5097808;23;20249;-69
2022/09/16 22:48:16;;;;;;;2.47;1.90;;;7.40;99.90;;;;;;5098096;23;20146;-69
2022/09/16 22:50:17;;;;;;;2.47;2.20;;;7.50;99.90;;;;;;5097342;23;20409;-69
2022/09/16 22:52:17;;;;;;;4.27;1.90;;;7.60;99.90;;;;;;5097998;23;20159;-68
2022/09/16 22:54:18;;;;;;;4.97;2.00;;;7.60;99.90;;;;;;5097823;23;20171;-69
2022/09/16 22:56:24;;;;;;;2.03;1.83;;;7.60;99.90;;;;;;5097821;23;20237;-69
2022/09/16 22:58:26;;;;;;;2.47;1.90;;;7.50;99.90;;;;;;5097895;23;20150;-69
2022/09/16 23:00:26;;;;;;;2.97;1.80;;;7.50;99.90;;;;;;5096923;23;20466;-69
2022/09/16 23:02:27;;;;;;;3.43;2.03;;;7.50;99.90;;;;;;5097535;23;20388;-68
2022/09/16 23:04:28;;;;;;;2.67;2.40;;;7.50;99.90;;;;;;5097641;23;20163;-69
2022/09/16 23:06:30;;;;;;;2.83;1.97;;;7.40;99.90;;;;;;5097569;23;20466;-69
2022/09/16 23:08:33;;;;;;;2.53;2.00;;;7.50;99.90;;;;;;5097206;23;20165;-69
2022/09/16 23:10:36;;;;;;;2.60;2.13;;;7.40;99.90;;;;;;5096632;23;21093;-69
2022/09/16 23:12:38;;;;;;;3.40;2.17;;;7.40;99.90;;;;;;5094384;23;20168;-69
2022/09/16 23:14:38;;;;;;;4.70;2.20;;;7.50;99.90;;;;;;5092106;23;20685;-68
2022/09/16 23:16:39;;;;;;;4.07;1.60;;;7.50;99.90;;;;;;5092077;23;20174;-68
2022/09/16 23:18:40;;;;;;;2.13;1.67;;;7.60;99.90;;;;;;5092010;23;20172;-69
2022/09/16 23:20:40;;;;;;;1.87;1.57;;;7.70;99.90;;;;;;5091165;23;20525;-69
2022/09/16 23:22:41;;;;;;;2.10;1.60;;;7.70;99.90;;;;;;5091879;23;20587;-69
2022/09/16 23:24:41;;;;;;;2.97;2.03;;;7.70;99.90;;;;;;5092176;23;20653;-69
2022/09/16 23:26:43;;;;;;;2.63;1.90;;;7.60;99.90;;;;;;5067811;23;20588;-69
2022/09/16 23:28:44;;;;;;;3.23;1.70;;;7.60;99.90;;;;;;5067659;23;20160;-69
2022/09/16 23:30:46;;;;;;;7.77;3.63;;;7.70;99.90;;;;;;5066946;23;20438;-68
2022/09/16 23:32:46;;;;;;;3.67;2.27;;;7.80;99.90;;;;;;5067704;23;20609;-69
2022/09/16 23:34:48;;;;;;;2.23;1.70;;;7.80;99.90;;;;;;5067933;23;20369;-69
2022/09/16 23:36:48;;;;;;;1.67;1.57;;;7.70;99.90;;;;;;5067954;23;20162;-69
2022/09/16 23:38:49;;;;;;;2.70;1.90;;;7.70;99.90;;;;;;5067807;23;20844;-69
2022/09/16 23:40:49;;;;;;;2.03;1.80;;;7.70;99.90;;;;;;5067045;23;20197;-69
2022/09/16 23:42:50;;;;;;;1.40;1.30;;;7.70;99.90;;;;;;5067728;23;20163;-68
2022/09/16 23:44:50;;;;;;;3.10;1.40;;;7.60;99.90;;;;;;5067458;23;20162;-69
2022/09/16 23:46:51;;;;;;;2.43;1.60;;;7.50;99.90;;;;;;5067518;23;20170;-69
2022/09/16 23:48:52;;;;;;;2.10;1.40;;;7.50;99.90;;;;;;5067512;23;20211;-69
2022/09/16 23:50:53;;;;;;;2.23;1.60;;;7.50;99.90;;;;;;5066485;23;20179;-69
2022/09/16 23:52:53;;;;;;;4.67;1.70;;;7.60;99.90;;;;;;5067453;23;20165;-69
2022/09/16 23:54:54;;;;;;;3.23;1.87;;;7.50;99.90;;;;;;5067441;23;20773;-68
2022/09/16 23:56:54;;;;;;;4.43;1.67;;;7.40;99.90;;;;;;5067511;23;20166;-68
2022/09/16 23:58:59;;;;;;;2.87;1.50;;;7.40;99.90;;;;;;5067352;23;20165;-69
